Fort Qu'Appelle, Canada
Current Conditions -  °F | °C
As of 2:00 AM on Monday 22 Dec 2014 (Local Time) from CYQR Reporting Station
Overcast Overcast  
Wind Chill: -10°   Ceiling: 700
Heat Index: -5°   Visibility: 10mi
Dew Point: -5°   Wind: 7mph
Humidity: 100%   Direction: 360°N
Pressure: 29.49"   Gusts: NA
Location:  50.77°N, 103.78°W
Report Text: CYQR 220800Z 36006KT 10SM OVC007 M05/M05 A2949 RMK SC8 SLP017
Loading
Personal Weather Stations






























Interactive Weather Map New forecast layout! Learn more

10-Day Weather Forecast

Advertisements
Track Severe Weather on mobile